createdAt,value
2022-11-15T00:01:08.023Z,1004.9
2022-11-15T00:07:53.852Z,1004.9
2022-11-15T00:13:50.979Z,1004.84
2022-11-15T00:20:11.017Z,1004.86
2022-11-15T00:26:33.974Z,1004.86
2022-11-15T00:32:53.990Z,1004.9
2022-11-15T00:39:17.002Z,1004.88
2022-11-15T00:45:36.989Z,1004.88
2022-11-15T00:52:00.013Z,1004.86
2022-11-15T00:58:19.998Z,1004.92
2022-11-15T01:04:43.008Z,1004.84
2022-11-15T01:11:02.979Z,1004.84
2022-11-15T01:17:26.013Z,1004.78
2022-11-15T01:23:46.001Z,1004.76
2022-11-15T01:30:09.003Z,1004.7
2022-11-15T01:36:29.009Z,1004.64
2022-11-15T01:42:51.983Z,1004.58
2022-11-15T01:49:12.024Z,1004.52
2022-11-15T01:55:35.005Z,1004.48
2022-11-15T02:01:54.975Z,1004.43
2022-11-15T02:08:17.994Z,1004.35
2022-11-15T02:14:38.013Z,1004.33
2022-11-15T02:21:00.992Z,1004.23
2022-11-15T02:27:20.985Z,1004.15
2022-11-15T02:33:44.007Z,1004.11
2022-11-15T02:40:03.970Z,1004.07
2022-11-15T02:46:26.976Z,1004.01
2022-11-15T02:52:47.016Z,1003.94
2022-11-15T02:59:09.976Z,1003.86
2022-11-15T03:05:30.002Z,1003.86
2022-11-15T03:11:53.017Z,1003.8
2022-11-15T03:18:12.973Z,1003.78
2022-11-15T03:24:35.985Z,1003.78
2022-11-15T03:30:55.995Z,1003.8
2022-11-15T03:37:18.999Z,1003.78
2022-11-15T03:43:38.989Z,1003.78
2022-11-15T03:50:02.021Z,1003.72
2022-11-15T03:56:21.986Z,1003.74
2022-11-15T04:02:44.980Z,1003.72
2022-11-15T04:09:05.024Z,1003.74
2022-11-15T04:15:27.982Z,1003.7
2022-11-15T04:21:48.007Z,1003.64
2022-11-15T04:28:11.000Z,1003.6
2022-11-15T04:34:30.972Z,1003.56
2022-11-15T04:40:54.053Z,1003.56
2022-11-15T04:57:56.007Z,1003.58
2022-11-15T05:04:18.978Z,1003.6
2022-11-15T05:10:38.979Z,1003.6
2022-11-15T05:17:01.998Z,1003.66
2022-11-15T05:23:21.988Z,1003.64
2022-11-15T05:29:44.996Z,1003.66
2022-11-15T05:36:05.017Z,1003.6
2022-11-15T05:42:28.002Z,1003.58
2022-11-15T05:48:47.991Z,1003.6
2022-11-15T05:55:11.000Z,1003.56
2022-11-15T06:01:30.989Z,1003.56
2022-11-15T06:07:53.981Z,1003.64
2022-11-15T06:14:14.011Z,1003.68
2022-11-15T06:20:36.989Z,1003.76
2022-11-15T06:26:56.976Z,1003.88
2022-11-15T06:33:20.030Z,1003.94
2022-11-15T06:39:39.965Z,1003.98
2022-11-15T06:46:02.986Z,1004.05
2022-11-15T06:52:23.012Z,1004.07
2022-11-15T06:58:45.977Z,1004.09
2022-11-15T07:05:05.999Z,1004.13
2022-11-15T07:11:29.021Z,1004.13
2022-11-15T07:17:49.022Z,1004.15
2022-11-15T07:24:12.013Z,1004.19
2022-11-15T07:30:32.022Z,1004.21
2022-11-15T07:36:55.000Z,1004.27
2022-11-15T07:43:15.011Z,1004.29
2022-11-15T07:49:38.076Z,1004.29
2022-11-15T07:55:57.982Z,1004.31
2022-11-15T08:02:21.099Z,1004.29
2022-11-15T08:08:41.020Z,1004.29
2022-11-15T08:15:03.996Z,1004.25
2022-11-15T08:21:23.990Z,1004.19
2022-11-15T08:27:46.999Z,1004.15
2022-11-15T08:34:06.982Z,1004.15
2022-11-15T08:40:30.254Z,1004.15
2022-11-15T08:46:50.047Z,1004.07
2022-11-15T08:53:13.002Z,1004.01
2022-11-15T08:59:33.012Z,1003.88
2022-11-15T09:05:56.014Z,1003.82
2022-11-15T09:12:17.009Z,1003.8
2022-11-15T09:18:40.003Z,1003.76
2022-11-15T09:25:00.019Z,1003.76
2022-11-15T09:31:23.169Z,1003.72
2022-11-15T09:37:43.214Z,1003.68
2022-11-15T09:44:06.298Z,1003.64
2022-11-15T09:50:26.017Z,1003.58
2022-11-15T09:56:48.995Z,1003.51
2022-11-15T10:03:09.001Z,1003.41
2022-11-15T10:19:01.512Z,1003.15
2022-11-15T10:25:21.003Z,1003.07
2022-11-15T10:31:43.985Z,1003.09
2022-11-15T10:38:04.022Z,1002.96
2022-11-15T10:44:26.983Z,1002.81
2022-11-15T10:50:47.005Z,1002.77
2022-11-15T10:57:09.997Z,1002.7
2022-11-15T11:03:29.987Z,1002.6
2022-11-15T11:09:52.999Z,1002.56
2022-11-15T11:16:13.045Z,1002.46
2022-11-15T11:22:36.000Z,1002.4
2022-11-15T11:28:55.981Z,1002.32
2022-11-15T11:35:19.035Z,1002.25
2022-11-15T11:41:39.195Z,1002.15
2022-11-15T11:48:02.009Z,1002.11
2022-11-15T11:54:22.043Z,1002.01
2022-11-15T12:00:45.061Z,1001.89
2022-11-15T12:07:05.031Z,1001.85
2022-11-15T12:13:28.010Z,1001.82
2022-11-15T12:19:48.030Z,1001.76
2022-11-15T12:26:10.981Z,1001.72
2022-11-15T12:32:31.012Z,1001.6
2022-11-15T12:38:53.989Z,1001.52
2022-11-15T12:45:13.981Z,1001.44
2022-11-15T12:51:37.011Z,1001.33
2022-11-15T12:57:56.983Z,1001.21
2022-11-15T13:04:20.019Z,1001.11
2022-11-15T13:10:40.031Z,1000.99
2022-11-15T13:17:02.984Z,1000.86
2022-11-15T13:23:23.031Z,1000.68
2022-11-15T13:29:46.003Z,1000.56
2022-11-15T13:36:05.994Z,1000.46
2022-11-15T13:42:28.984Z,1000.39
2022-11-15T13:48:49.004Z,1000.16
2022-11-15T13:55:12.070Z,1000.07
2022-11-15T14:01:32.002Z,999.99
2022-11-15T14:07:55.016Z,999.91
2022-11-15T14:14:14.984Z,999.77
2022-11-15T14:20:37.975Z,999.65
2022-11-15T14:26:58.012Z,999.6
2022-11-15T14:33:20.980Z,999.52
2022-11-15T14:39:40.984Z,999.48
2022-11-15T14:46:04.000Z,999.4
2022-11-15T14:52:27.471Z,999.3
2022-11-15T14:58:47.024Z,999.24
2022-11-15T15:05:07.040Z,999.15
2022-11-15T15:11:30.032Z,999.09
2022-11-15T15:17:49.976Z,998.97
2022-11-15T15:24:13.011Z,998.83
2022-11-15T15:30:32.973Z,998.73
2022-11-15T15:54:15.998Z,998.4
2022-11-15T16:00:38.986Z,998.34
2022-11-15T16:06:59.043Z,998.34
2022-11-15T16:13:21.998Z,998.3
2022-11-15T16:19:42.002Z,998.24
2022-11-15T16:26:04.984Z,998.19
2022-11-15T16:32:25.036Z,998.17
2022-11-15T16:38:47.986Z,998.11
2022-11-15T16:45:07.969Z,998.05
2022-11-15T16:51:31.007Z,998.03
2022-11-15T16:57:50.986Z,998.03
2022-11-15T17:04:14.004Z,998.05
2022-11-15T17:10:34.067Z,997.97
2022-11-15T17:16:56.972Z,997.99
2022-11-15T17:23:16.979Z,997.95
2022-11-15T17:29:39.995Z,997.91
2022-11-15T17:36:00.191Z,997.95
2022-11-15T17:42:22.992Z,997.95
2022-11-15T17:48:42.995Z,997.95
2022-11-15T17:55:06.025Z,997.93
2022-11-15T18:01:26.088Z,997.87
2022-11-15T18:07:49.015Z,997.89
2022-11-15T18:14:08.984Z,997.87
2022-11-15T18:20:31.978Z,997.81
2022-11-15T18:26:52.004Z,997.77
2022-11-15T18:33:14.970Z,997.65
2022-11-15T18:39:35.024Z,997.61
2022-11-15T18:45:58.007Z,997.61
2022-11-15T18:52:17.986Z,997.57
2022-11-15T18:58:41.157Z,997.51
2022-11-15T19:05:01.033Z,997.46
2022-11-15T19:11:24.017Z,997.4
2022-11-15T19:17:43.990Z,997.34
2022-11-15T19:24:07.049Z,997.32
2022-11-15T19:30:26.978Z,997.28
2022-11-15T19:36:49.999Z,997.22
2022-11-15T19:43:10.028Z,997.24
2022-11-15T19:49:32.993Z,997.2
2022-11-15T19:55:53.011Z,997.14
2022-11-15T20:02:16.045Z,997.1
2022-11-15T20:08:36.333Z,996.99
2022-11-15T20:14:59.028Z,996.91
2022-11-15T20:21:19.027Z,996.83
2022-11-15T20:27:41.994Z,996.77
2022-11-15T20:34:02.021Z,996.73
2022-11-15T20:40:25.091Z,996.69
2022-11-15T21:03:09.988Z,996.59
2022-11-15T21:09:33.023Z,996.52
2022-11-15T21:15:52.993Z,996.48
2022-11-15T21:22:16.040Z,996.4
2022-11-15T21:28:36.487Z,996.34
2022-11-15T21:34:58.990Z,996.26
2022-11-15T21:41:19.001Z,996.2
2022-11-15T21:47:45.696Z,996.12
2022-11-15T21:54:01.983Z,996.08
2022-11-15T22:00:25.028Z,996.05
2022-11-15T22:06:44.992Z,995.95
2022-11-15T22:13:07.977Z,995.87
2022-11-15T22:19:28.030Z,995.77
2022-11-15T22:25:50.996Z,995.71
2022-11-15T22:32:10.984Z,995.65
2022-11-15T22:38:34.224Z,995.59
2022-11-15T22:44:53.983Z,995.54
2022-11-15T22:51:17.000Z,995.52
2022-11-15T22:57:37.009Z,995.5
2022-11-15T23:20:42.802Z,995.3
2022-11-15T23:26:53.972Z,995.26
2022-11-15T23:33:17.013Z,995.22
2022-11-15T23:39:37.032Z,995.1
2022-11-15T23:45:59.985Z,995.06
2022-11-15T23:52:19.987Z,995
2022-11-15T23:58:43.000Z,994.96
